Cloud Crest Hills, Indiana
Current Conditions -  °F | °C
As of 1:55 PM on Friday 24 Oct 2014 (Local Time) from K1II Reporting Station
Haze Haze  
Wind Chill: 64°   Ceiling: Unl
Heat Index: 64°   Visibility: 5mi
Dew Point: 45°   Wind: 6mph
Humidity: 49%   Direction: 260°W
Pressure: 30.08"   Gusts: NA
Location:  39.193°N, 86.2182°W
Report Text: K1II 241755Z AUTO 26005KT 5SM HZ SCT033 18/07 A3008 RMK AO2
Loading
Personal Weather Stations






























Interactive Weather Map
Tropical Storm Tracking
New forecast layout! Learn more

10-Day Weather Forecast

Advertisements
Track Severe Weather on mobile